Monday, March 02, 2015
11:10 UTC
  |  Log In   |  Register Free
Airport Search:

Norwood Memorial Airport
(KOWD)

FAA data valid effective January 08, 2015 - March 05, 2015 (unless otherwise noted).

 
 
 
 
 
 
 
 
 
 
 
 
 
 

Current Aviation Weather for Norwood Memorial Airport (KOWD)

The most recent METAR observation for KOWD was updated at: 1013
METAR Summary (Translated METAR)
KOWD
020953Z AUTO 24004KT 10SM BKN070 OVC085 M02/M04 A2997 RMK AO2 SLP149 T10221044
KBOS
021054Z 27007KT 10SM OVC075 M02/M05 A2995 RMK AO2 SLP140 T10221050
(12.7 nm NE from KOWD)
KBED
021056Z 26003KT 10SM OVC070 M04/M06 A2993 RMK AO2 SLP152 T10441056
(17.6 nm NW from KOWD)
TAF Summary (Translated TAF)
KBOS
(12.7 nm NE from KOWD)
020912Z 0209/0312 28010KT P6SM FEW040 BKN080 FM021300 28011G19KT P6SM BKN045 FM021500 29015G29KT P6SM SCT050 FM021800 30017G31KT P6SM SCT040 FM030000 30016KT P6SM SCT045 FM030100 30015KT P6SM SCT250
KBED
(17.6 nm NW from KOWD)
020540Z 0206/0306 22004KT 3SM -SN OVC015 TEMPO 0206/0207 2SM -SN FM020730 23004KT P6SM OVC045 FM021300 27008KT P6SM BKN050 FM021500 29013G28KT P6SM BKN045 FM021800 29016G31KT P6SM SCT040 FM022300 30012G23KT P6SM SCT045 FM030100 30010KT P6SM SCT250
  Airport Weather Conditions for KOWD

 Current Weather at OWD
28° F
Overcast
Southwest winds at 4.6 mph
OWD NOAA Radar

Pressure: 29.97 in
Humidity: 85%
Wind: Southwest at 4.6 MPH (4 KT)
Dew Point: 24.1°F
Visibility: 10.00 mi


Airport Weather Forecast for KOWD

Translated METAR and TAF for KOWD
Translated METAR for KOWD (1110 UTC 02 March 2015)
found at http://aviationweather.gov/adds/metars/
 
METAR text: KOWD 021053Z AUTO 25004KT 10SM OVC075 M02/M04 A2995 RMK AO2 SLP143 T10221044
Conditions at: KOWD (NORWOOD , MA, US) observed 1053 UTC 02 March 2015
Temperature: -2.2°C (28°F)
Dewpoint: -4.4°C (24°F) [RH = 85%]
Pressure (altimeter): 29.95 inches Hg (1014.3 mb)
[Sea-level pressure: 1014.3 mb]
Winds: from the WSW (250 degrees) at 5 MPH (4 knots; 2.1 m/s)
Visibility: 10 or more miles (16+ km)
Ceiling: 7500 feet AGL
Clouds: overcast cloud deck at 7500 feet AGL
Weather: automated observation with no human augmentation;
there may or may not be significant weather present at this time
Translated TAF for KOWD

There is no translated TAF available for this airport

Find All Airport Services Find A Hotel Find A Rental Car Find A Golf Course Find A Restaurant $100 Hamburger



FBO's on the Field
FBO Company Facility Photos Services Transportation Aviation Fuel Prices: Prices include tax
Catering Weather Repair Courtesy Rental Type 100LL JetA JetA+ MOGAS 8087
 
FlightLevel Aviation

Currently rated 2.7 by 2 people
FS:Shell
Last Updated: Feb-26
Login to update fuel prices
SS:
Contact FlightLevel AviationMore FBO Information
 
Add another FBO Facility Photos Catering Weather Repair Courtesy Rental Type 100LL JetA JetA+ MOGAS 8087
Services Transportation Aviation Fuel Prices: Prices include tax


model-print
model-print
model-print
model-print